sensor_id;sensor_type;location;lat;lon;timestamp;P1;durP1;ratioP1;P2;durP2;ratioP2
18013;SDS011;9132;47.946;10.394;2023-02-12T00:02:13;21.03;;;13.40;;
18013;SDS011;9132;47.946;10.394;2023-02-12T00:04:40;19.60;;;12.63;;
18013;SDS011;9132;47.946;10.394;2023-02-12T00:07:07;16.30;;;12.20;;
18013;SDS011;9132;47.946;10.394;2023-02-12T00:09:33;17.33;;;12.17;;
18013;SDS011;9132;47.946;10.394;2023-02-12T00:12:00;19.13;;;12.37;;
18013;SDS011;9132;47.946;10.394;2023-02-12T00:14:26;17.83;;;12.67;;
18013;SDS011;9132;47.946;10.394;2023-02-12T00:16:52;16.77;;;12.10;;
18013;SDS011;9132;47.946;10.394;2023-02-12T00:19:19;18.70;;;12.87;;
18013;SDS011;9132;47.946;10.394;2023-02-12T00:21:46;17.53;;;12.17;;
18013;SDS011;9132;47.946;10.394;2023-02-12T00:24:12;19.00;;;12.37;;
18013;SDS011;9132;47.946;10.394;2023-02-12T00:26:39;20.60;;;14.13;;
18013;SDS011;9132;47.946;10.394;2023-02-12T00:29:05;22.43;;;13.40;;
18013;SDS011;9132;47.946;10.394;2023-02-12T00:31:31;19.57;;;13.17;;
18013;SDS011;9132;47.946;10.394;2023-02-12T00:33:58;18.43;;;13.30;;
18013;SDS011;9132;47.946;10.394;2023-02-12T00:36:25;18.50;;;13.10;;
18013;SDS011;9132;47.946;10.394;2023-02-12T00:38:54;21.27;;;12.63;;
18013;SDS011;9132;47.946;10.394;2023-02-12T00:41:21;17.87;;;13.03;;
18013;SDS011;9132;47.946;10.394;2023-02-12T00:43:48;22.50;;;14.33;;
18013;SDS011;9132;47.946;10.394;2023-02-12T00:46:14;22.60;;;14.77;;
18013;SDS011;9132;47.946;10.394;2023-02-12T00:48:40;20.93;;;15.47;;
18013;SDS011;9132;47.946;10.394;2023-02-12T00:51:06;21.53;;;14.10;;
18013;SDS011;9132;47.946;10.394;2023-02-12T00:53:33;21.00;;;14.07;;
18013;SDS011;9132;47.946;10.394;2023-02-12T00:56:01;22.53;;;13.83;;
18013;SDS011;9132;47.946;10.394;2023-02-12T00:58:27;22.80;;;13.43;;
18013;SDS011;9132;47.946;10.394;2023-02-12T01:00:54;20.27;;;13.00;;
18013;SDS011;9132;47.946;10.394;2023-02-12T01:03:20;22.83;;;14.13;;
18013;SDS011;9132;47.946;10.394;2023-02-12T01:05:46;23.13;;;13.63;;
18013;SDS011;9132;47.946;10.394;2023-02-12T01:08:13;18.80;;;13.33;;
18013;SDS011;9132;47.946;10.394;2023-02-12T01:10:40;21.10;;;14.73;;
18013;SDS011;9132;47.946;10.394;2023-02-12T01:13:08;20.67;;;13.30;;
18013;SDS011;9132;47.946;10.394;2023-02-12T01:15:35;20.90;;;14.07;;
18013;SDS011;9132;47.946;10.394;2023-02-12T01:18:02;22.87;;;14.53;;
18013;SDS011;9132;47.946;10.394;2023-02-12T01:20:28;20.10;;;13.93;;
18013;SDS011;9132;47.946;10.394;2023-02-12T01:22:54;23.37;;;14.70;;
18013;SDS011;9132;47.946;10.394;2023-02-12T01:25:21;20.33;;;13.83;;
18013;SDS011;9132;47.946;10.394;2023-02-12T01:27:47;19.80;;;14.13;;
18013;SDS011;9132;47.946;10.394;2023-02-12T01:30:15;19.27;;;13.67;;
18013;SDS011;9132;47.946;10.394;2023-02-12T01:32:41;20.43;;;13.93;;
18013;SDS011;9132;47.946;10.394;2023-02-12T01:35:08;22.07;;;14.37;;
18013;SDS011;9132;47.946;10.394;2023-02-12T01:37:35;22.17;;;14.17;;
18013;SDS011;9132;47.946;10.394;2023-02-12T01:40:01;22.80;;;14.93;;
18013;SDS011;9132;47.946;10.394;2023-02-12T01:42:27;24.27;;;15.17;;
18013;SDS011;9132;47.946;10.394;2023-02-12T01:47:41;22.63;;;14.63;;
18013;SDS011;9132;47.946;10.394;2023-02-12T01:50:08;21.87;;;14.90;;
18013;SDS011;9132;47.946;10.394;2023-02-12T01:52:36;24.03;;;14.57;;
18013;SDS011;9132;47.946;10.394;2023-02-12T01:55:03;23.43;;;15.03;;
18013;SDS011;9132;47.946;10.394;2023-02-12T01:57:31;21.17;;;14.80;;
18013;SDS011;9132;47.946;10.394;2023-02-12T01:59:58;21.03;;;14.00;;
18013;SDS011;9132;47.946;10.394;2023-02-12T02:02:25;24.67;;;14.97;;
18013;SDS011;9132;47.946;10.394;2023-02-12T02:04:54;21.47;;;14.93;;
18013;SDS011;9132;47.946;10.394;2023-02-12T02:07:22;23.13;;;15.13;;
18013;SDS011;9132;47.946;10.394;2023-02-12T02:09:48;22.77;;;14.80;;
18013;SDS011;9132;47.946;10.394;2023-02-12T02:12:15;24.37;;;15.93;;
18013;SDS011;9132;47.946;10.394;2023-02-12T02:14:59;21.37;;;14.57;;
18013;SDS011;9132;47.946;10.394;2023-02-12T02:17:33;24.37;;;15.17;;
18013;SDS011;9132;47.946;10.394;2023-02-12T02:22:47;22.63;;;15.57;;
18013;SDS011;9132;47.946;10.394;2023-02-12T02:25:27;19.87;;;14.87;;
18013;SDS011;9132;47.946;10.394;2023-02-12T02:28:05;22.67;;;15.97;;
18013;SDS011;9132;47.946;10.394;2023-02-12T02:30:38;26.70;;;16.33;;
18013;SDS011;9132;47.946;10.394;2023-02-12T02:33:10;20.50;;;15.53;;
18013;SDS011;9132;47.946;10.394;2023-02-12T02:35:39;24.07;;;16.77;;
18013;SDS011;9132;47.946;10.394;2023-02-12T02:38:10;25.03;;;16.03;;
18013;SDS011;9132;47.946;10.394;2023-02-12T02:40:40;22.67;;;16.33;;
18013;SDS011;9132;47.946;10.394;2023-02-12T02:43:10;23.60;;;15.63;;
18013;SDS011;9132;47.946;10.394;2023-02-12T02:45:42;23.60;;;16.20;;
18013;SDS011;9132;47.946;10.394;2023-02-12T02:48:09;28.70;;;17.13;;
18013;SDS011;9132;47.946;10.394;2023-02-12T02:50:39;25.33;;;16.03;;
18013;SDS011;9132;47.946;10.394;2023-02-12T02:53:07;25.53;;;15.40;;
18013;SDS011;9132;47.946;10.394;2023-02-12T02:55:36;23.20;;;15.73;;
18013;SDS011;9132;47.946;10.394;2023-02-12T02:58:05;24.37;;;15.87;;
18013;SDS011;9132;47.946;10.394;2023-02-12T03:00:34;22.57;;;16.43;;
18013;SDS011;9132;47.946;10.394;2023-02-12T03:03:04;24.77;;;15.73;;
18013;SDS011;9132;47.946;10.394;2023-02-12T03:05:34;24.00;;;16.97;;
18013;SDS011;9132;47.946;10.394;2023-02-12T03:08:03;21.77;;;15.53;;
18013;SDS011;9132;47.946;10.394;2023-02-12T03:10:33;24.70;;;16.17;;
18013;SDS011;9132;47.946;10.394;2023-02-12T03:13:01;23.87;;;16.40;;
18013;SDS011;9132;47.946;10.394;2023-02-12T03:15:30;29.03;;;17.07;;
18013;SDS011;9132;47.946;10.394;2023-02-12T03:17:57;26.07;;;16.20;;
18013;SDS011;9132;47.946;10.394;2023-02-12T03:20:27;24.57;;;16.73;;
18013;SDS011;9132;47.946;10.394;2023-02-12T03:22:54;27.00;;;16.70;;
18013;SDS011;9132;47.946;10.394;2023-02-12T03:25:24;25.73;;;16.50;;
18013;SDS011;9132;47.946;10.394;2023-02-12T03:27:53;27.97;;;17.53;;
18013;SDS011;9132;47.946;10.394;2023-02-12T03:30:22;21.27;;;15.63;;
18013;SDS011;9132;47.946;10.394;2023-02-12T03:32:51;25.97;;;16.47;;
18013;SDS011;9132;47.946;10.394;2023-02-12T03:35:20;26.53;;;17.10;;
18013;SDS011;9132;47.946;10.394;2023-02-12T03:37:50;24.23;;;16.00;;
18013;SDS011;9132;47.946;10.394;2023-02-12T03:40:21;27.47;;;15.77;;
18013;SDS011;9132;47.946;10.394;2023-02-12T03:42:51;27.40;;;17.57;;
18013;SDS011;9132;47.946;10.394;2023-02-12T03:45:21;25.80;;;17.20;;
18013;SDS011;9132;47.946;10.394;2023-02-12T03:47:53;27.30;;;18.20;;
18013;SDS011;9132;47.946;10.394;2023-02-12T03:50:26;24.67;;;16.40;;
18013;SDS011;9132;47.946;10.394;2023-02-12T03:52:58;25.77;;;16.90;;
18013;SDS011;9132;47.946;10.394;2023-02-12T03:55:25;26.20;;;16.87;;
18013;SDS011;9132;47.946;10.394;2023-02-12T03:57:53;25.43;;;16.13;;
18013;SDS011;9132;47.946;10.394;2023-02-12T04:00:21;27.33;;;17.10;;
18013;SDS011;9132;47.946;10.394;2023-02-12T04:02:48;26.20;;;16.40;;
18013;SDS011;9132;47.946;10.394;2023-02-12T04:05:16;26.50;;;16.80;;
18013;SDS011;9132;47.946;10.394;2023-02-12T04:07:43;25.47;;;17.27;;
18013;SDS011;9132;47.946;10.394;2023-02-12T04:10:11;25.33;;;17.43;;
18013;SDS011;9132;47.946;10.394;2023-02-12T04:12:38;26.37;;;17.30;;
18013;SDS011;9132;47.946;10.394;2023-02-12T04:15:10;26.87;;;16.93;;
18013;SDS011;9132;47.946;10.394;2023-02-12T04:17:40;27.87;;;18.27;;
18013;SDS011;9132;47.946;10.394;2023-02-12T04:20:12;26.33;;;17.87;;
18013;SDS011;9132;47.946;10.394;2023-02-12T04:22:44;26.73;;;18.03;;
18013;SDS011;9132;47.946;10.394;2023-02-12T04:25:18;24.63;;;17.40;;
18013;SDS011;9132;47.946;10.394;2023-02-12T04:27:46;28.30;;;17.97;;
18013;SDS011;9132;47.946;10.394;2023-02-12T04:30:18;27.63;;;18.50;;
18013;SDS011;9132;47.946;10.394;2023-02-12T04:32:46;31.40;;;18.20;;
18013;SDS011;9132;47.946;10.394;2023-02-12T04:35:14;28.57;;;18.67;;
18013;SDS011;9132;47.946;10.394;2023-02-12T04:37:44;26.60;;;18.50;;
18013;SDS011;9132;47.946;10.394;2023-02-12T04:40:12;30.27;;;19.67;;
18013;SDS011;9132;47.946;10.394;2023-02-12T04:42:41;26.93;;;17.30;;
18013;SDS011;9132;47.946;10.394;2023-02-12T04:45:08;29.73;;;18.57;;
18013;SDS011;9132;47.946;10.394;2023-02-12T04:47:35;25.03;;;17.83;;
18013;SDS011;9132;47.946;10.394;2023-02-12T04:50:01;29.27;;;18.13;;
18013;SDS011;9132;47.946;10.394;2023-02-12T04:52:27;28.93;;;17.97;;
18013;SDS011;9132;47.946;10.394;2023-02-12T04:54:54;28.90;;;18.83;;
18013;SDS011;9132;47.946;10.394;2023-02-12T04:57:20;27.30;;;18.90;;
18013;SDS011;9132;47.946;10.394;2023-02-12T04:59:48;29.97;;;19.13;;
18013;SDS011;9132;47.946;10.394;2023-02-12T05:02:14;27.10;;;18.07;;
18013;SDS011;9132;47.946;10.394;2023-02-12T05:04:40;28.43;;;18.40;;
18013;SDS011;9132;47.946;10.394;2023-02-12T05:07:06;23.27;;;16.13;;
18013;SDS011;9132;47.946;10.394;2023-02-12T05:09:33;28.60;;;17.77;;
18013;SDS011;9132;47.946;10.394;2023-02-12T05:11:59;28.57;;;17.90;;
18013;SDS011;9132;47.946;10.394;2023-02-12T05:14:25;28.20;;;18.27;;
18013;SDS011;9132;47.946;10.394;2023-02-12T05:16:53;26.17;;;17.70;;
18013;SDS011;9132;47.946;10.394;2023-02-12T05:19:19;26.17;;;17.60;;
18013;SDS011;9132;47.946;10.394;2023-02-12T05:21:48;25.83;;;17.27;;
18013;SDS011;9132;47.946;10.394;2023-02-12T05:24:14;27.53;;;17.80;;
18013;SDS011;9132;47.946;10.394;2023-02-12T05:26:41;30.03;;;18.00;;
18013;SDS011;9132;47.946;10.394;2023-02-12T05:29:07;26.83;;;18.93;;
18013;SDS011;9132;47.946;10.394;2023-02-12T05:31:33;29.60;;;18.90;;
18013;SDS011;9132;47.946;10.394;2023-02-12T05:34:01;31.97;;;19.57;;
18013;SDS011;9132;47.946;10.394;2023-02-12T05:36:27;28.90;;;20.23;;
18013;SDS011;9132;47.946;10.394;2023-02-12T05:38:55;27.90;;;18.87;;
18013;SDS011;9132;47.946;10.394;2023-02-12T05:41:23;30.83;;;19.77;;
18013;SDS011;9132;47.946;10.394;2023-02-12T05:43:49;31.30;;;19.43;;
18013;SDS011;9132;47.946;10.394;2023-02-12T05:46:16;28.53;;;18.90;;
18013;SDS011;9132;47.946;10.394;2023-02-12T05:48:42;30.27;;;20.27;;
18013;SDS011;9132;47.946;10.394;2023-02-12T05:51:11;32.00;;;20.87;;
18013;SDS011;9132;47.946;10.394;2023-02-12T05:53:38;30.27;;;20.13;;
18013;SDS011;9132;47.946;10.394;2023-02-12T05:56:11;33.83;;;21.23;;
18013;SDS011;9132;47.946;10.394;2023-02-12T05:58:38;31.00;;;20.70;;
18013;SDS011;9132;47.946;10.394;2023-02-12T06:01:08;29.50;;;19.27;;
18013;SDS011;9132;47.946;10.394;2023-02-12T06:03:34;29.87;;;20.03;;
18013;SDS011;9132;47.946;10.394;2023-02-12T06:06:00;32.33;;;20.60;;
18013;SDS011;9132;47.946;10.394;2023-02-12T06:08:28;35.10;;;21.23;;
18013;SDS011;9132;47.946;10.394;2023-02-12T06:10:57;32.30;;;21.87;;
18013;SDS011;9132;47.946;10.394;2023-02-12T06:13:24;36.17;;;22.60;;
18013;SDS011;9132;47.946;10.394;2023-02-12T06:15:50;36.77;;;24.00;;
18013;SDS011;9132;47.946;10.394;2023-02-12T06:18:16;35.20;;;22.37;;
18013;SDS011;9132;47.946;10.394;2023-02-12T06:20:43;36.77;;;23.57;;
18013;SDS011;9132;47.946;10.394;2023-02-12T06:23:09;33.33;;;22.33;;
18013;SDS011;9132;47.946;10.394;2023-02-12T06:25:36;35.07;;;22.07;;
18013;SDS011;9132;47.946;10.394;2023-02-12T06:28:03;31.20;;;21.20;;
18013;SDS011;9132;47.946;10.394;2023-02-12T06:30:29;37.23;;;22.93;;
18013;SDS011;9132;47.946;10.394;2023-02-12T06:32:56;35.00;;;22.43;;
18013;SDS011;9132;47.946;10.394;2023-02-12T06:35:22;32.27;;;21.50;;
18013;SDS011;9132;47.946;10.394;2023-02-12T06:37:48;34.27;;;21.67;;
18013;SDS011;9132;47.946;10.394;2023-02-12T06:40:15;31.13;;;20.97;;
18013;SDS011;9132;47.946;10.394;2023-02-12T06:42:42;36.40;;;23.13;;
18013;SDS011;9132;47.946;10.394;2023-02-12T06:45:09;34.07;;;21.83;;
18013;SDS011;9132;47.946;10.394;2023-02-12T06:47:35;33.23;;;20.67;;
18013;SDS011;9132;47.946;10.394;2023-02-12T06:50:02;36.53;;;21.70;;
18013;SDS011;9132;47.946;10.394;2023-02-12T06:52:28;33.63;;;22.20;;
18013;SDS011;9132;47.946;10.394;2023-02-12T06:54:54;32.90;;;21.30;;
18013;SDS011;9132;47.946;10.394;2023-02-12T06:57:20;33.27;;;21.50;;
18013;SDS011;9132;47.946;10.394;2023-02-12T06:59:49;31.77;;;21.63;;
18013;SDS011;9132;47.946;10.394;2023-02-12T07:02:15;29.60;;;20.33;;
18013;SDS011;9132;47.946;10.394;2023-02-12T07:04:41;33.33;;;21.90;;
18013;SDS011;9132;47.946;10.394;2023-02-12T07:07:08;32.10;;;20.33;;
18013;SDS011;9132;47.946;10.394;2023-02-12T07:09:34;31.20;;;20.60;;
18013;SDS011;9132;47.946;10.394;2023-02-12T07:12:00;32.07;;;20.77;;
18013;SDS011;9132;47.946;10.394;2023-02-12T07:14:27;31.70;;;20.73;;
18013;SDS011;9132;47.946;10.394;2023-02-12T07:16:54;30.33;;;20.13;;
18013;SDS011;9132;47.946;10.394;2023-02-12T07:19:21;29.97;;;20.57;;
18013;SDS011;9132;47.946;10.394;2023-02-12T07:21:47;33.90;;;20.87;;
18013;SDS011;9132;47.946;10.394;2023-02-12T07:24:14;29.67;;;19.73;;
18013;SDS011;9132;47.946;10.394;2023-02-12T07:26:42;30.40;;;19.87;;
18013;SDS011;9132;47.946;10.394;2023-02-12T07:29:08;31.27;;;19.93;;
18013;SDS011;9132;47.946;10.394;2023-02-12T07:31:35;30.90;;;20.80;;
18013;SDS011;9132;47.946;10.394;2023-02-12T07:34:02;32.73;;;20.90;;
18013;SDS011;9132;47.946;10.394;2023-02-12T07:36:29;29.67;;;20.07;;
18013;SDS011;9132;47.946;10.394;2023-02-12T07:38:57;31.13;;;20.60;;
18013;SDS011;9132;47.946;10.394;2023-02-12T07:41:24;31.83;;;20.43;;
18013;SDS011;9132;47.946;10.394;2023-02-12T07:43:52;35.40;;;21.83;;
18013;SDS011;9132;47.946;10.394;2023-02-12T07:46:20;30.83;;;20.33;;
18013;SDS011;9132;47.946;10.394;2023-02-12T07:48:47;31.93;;;20.43;;
18013;SDS011;9132;47.946;10.394;2023-02-12T07:51:15;37.23;;;23.23;;
18013;SDS011;9132;47.946;10.394;2023-02-12T07:53:43;41.10;;;25.40;;
18013;SDS011;9132;47.946;10.394;2023-02-12T07:56:10;45.40;;;28.20;;
18013;SDS011;9132;47.946;10.394;2023-02-12T07:58:37;37.03;;;24.33;;
18013;SDS011;9132;47.946;10.394;2023-02-12T08:01:10;59.00;;;42.87;;
18013;SDS011;9132;47.946;10.394;2023-02-12T08:03:36;64.40;;;41.40;;
18013;SDS011;9132;47.946;10.394;2023-02-12T08:06:05;57.83;;;38.63;;
18013;SDS011;9132;47.946;10.394;2023-02-12T08:08:33;70.50;;;42.23;;
18013;SDS011;9132;47.946;10.394;2023-02-12T08:11:02;44.07;;;28.50;;
18013;SDS011;9132;47.946;10.394;2023-02-12T08:13:29;36.53;;;25.00;;
18013;SDS011;9132;47.946;10.394;2023-02-12T08:15:58;25.70;;;18.50;;
18013;SDS011;9132;47.946;10.394;2023-02-12T08:18:24;25.47;;;16.13;;
18013;SDS011;9132;47.946;10.394;2023-02-12T08:20:51;23.43;;;15.10;;
18013;SDS011;9132;47.946;10.394;2023-02-12T08:23:17;20.10;;;13.50;;
18013;SDS011;9132;47.946;10.394;2023-02-12T08:25:45;23.30;;;14.50;;
18013;SDS011;9132;47.946;10.394;2023-02-12T08:28:11;19.03;;;13.23;;
18013;SDS011;9132;47.946;10.394;2023-02-12T08:30:37;16.50;;;12.23;;
18013;SDS011;9132;47.946;10.394;2023-02-12T08:33:03;19.03;;;11.80;;
18013;SDS011;9132;47.946;10.394;2023-02-12T08:35:30;17.73;;;11.63;;
18013;SDS011;9132;47.946;10.394;2023-02-12T08:37:56;16.33;;;11.73;;
18013;SDS011;9132;47.946;10.394;2023-02-12T08:40:22;15.30;;;11.07;;
18013;SDS011;9132;47.946;10.394;2023-02-12T08:42:51;18.17;;;12.07;;
18013;SDS011;9132;47.946;10.394;2023-02-12T08:45:17;19.93;;;11.27;;
18013;SDS011;9132;47.946;10.394;2023-02-12T08:47:43;17.70;;;11.23;;
18013;SDS011;9132;47.946;10.394;2023-02-12T08:50:12;14.53;;;10.60;;
18013;SDS011;9132;47.946;10.394;2023-02-12T08:52:39;15.40;;;10.10;;
18013;SDS011;9132;47.946;10.394;2023-02-12T08:55:05;15.13;;;10.57;;
18013;SDS011;9132;47.946;10.394;2023-02-12T08:57:32;14.70;;;10.07;;
18013;SDS011;9132;47.946;10.394;2023-02-12T09:00:00;16.20;;;10.57;;
18013;SDS011;9132;47.946;10.394;2023-02-12T09:02:26;16.20;;;11.40;;
18013;SDS011;9132;47.946;10.394;2023-02-12T09:04:53;18.30;;;10.73;;
18013;SDS011;9132;47.946;10.394;2023-02-12T09:07:19;18.50;;;10.63;;
18013;SDS011;9132;47.946;10.394;2023-02-12T09:09:45;18.03;;;11.63;;
18013;SDS011;9132;47.946;10.394;2023-02-12T09:12:12;19.00;;;12.40;;
18013;SDS011;9132;47.946;10.394;2023-02-12T09:14:38;15.63;;;11.23;;
18013;SDS011;9132;47.946;10.394;2023-02-12T09:17:05;15.93;;;10.97;;
18013;SDS011;9132;47.946;10.394;2023-02-12T09:19:32;18.70;;;12.37;;
18013;SDS011;9132;47.946;10.394;2023-02-12T09:21:58;17.50;;;11.83;;
18013;SDS011;9132;47.946;10.394;2023-02-12T09:24:24;16.23;;;10.43;;
18013;SDS011;9132;47.946;10.394;2023-02-12T09:26:51;17.10;;;11.30;;
18013;SDS011;9132;47.946;10.394;2023-02-12T09:29:17;15.97;;;11.37;;
18013;SDS011;9132;47.946;10.394;2023-02-12T09:31:44;16.70;;;10.07;;
18013;SDS011;9132;47.946;10.394;2023-02-12T09:34:11;16.83;;;11.27;;
18013;SDS011;9132;47.946;10.394;2023-02-12T09:36:37;16.23;;;11.23;;
18013;SDS011;9132;47.946;10.394;2023-02-12T09:39:04;19.17;;;11.60;;
18013;SDS011;9132;47.946;10.394;2023-02-12T09:41:49;18.23;;;12.07;;
18013;SDS011;9132;47.946;10.394;2023-02-12T09:44:21;18.03;;;11.53;;
18013;SDS011;9132;47.946;10.394;2023-02-12T09:46:52;15.50;;;11.97;;
18013;SDS011;9132;47.946;10.394;2023-02-12T09:49:25;17.97;;;12.07;;
18013;SDS011;9132;47.946;10.394;2023-02-12T09:51:51;16.80;;;12.33;;
18013;SDS011;9132;47.946;10.394;2023-02-12T09:54:19;20.70;;;14.63;;
18013;SDS011;9132;47.946;10.394;2023-02-12T09:56:46;21.93;;;14.87;;
18013;SDS011;9132;47.946;10.394;2023-02-12T09:59:15;20.83;;;13.40;;
18013;SDS011;9132;47.946;10.394;2023-02-12T10:01:45;19.50;;;14.37;;
18013;SDS011;9132;47.946;10.394;2023-02-12T10:04:11;19.40;;;13.07;;
18013;SDS011;9132;47.946;10.394;2023-02-12T10:06:40;18.53;;;12.60;;
18013;SDS011;9132;47.946;10.394;2023-02-12T10:09:23;19.87;;;13.90;;
18013;SDS011;9132;47.946;10.394;2023-02-12T10:11:55;19.37;;;12.83;;
18013;SDS011;9132;47.946;10.394;2023-02-12T10:14:29;18.90;;;13.90;;
18013;SDS011;9132;47.946;10.394;2023-02-12T10:16:58;16.47;;;11.80;;
18013;SDS011;9132;47.946;10.394;2023-02-12T10:19:32;18.20;;;12.47;;
18013;SDS011;9132;47.946;10.394;2023-02-12T10:22:06;17.47;;;11.80;;
18013;SDS011;9132;47.946;10.394;2023-02-12T10:24:39;15.23;;;11.23;;
18013;SDS011;9132;47.946;10.394;2023-02-12T10:27:13;18.20;;;11.70;;
18013;SDS011;9132;47.946;10.394;2023-02-12T10:29:40;15.10;;;11.80;;
18013;SDS011;9132;47.946;10.394;2023-02-12T10:32:10;15.37;;;10.87;;
18013;SDS011;9132;47.946;10.394;2023-02-12T10:34:39;13.30;;;9.63;;
18013;SDS011;9132;47.946;10.394;2023-02-12T10:37:12;13.83;;;10.10;;
18013;SDS011;9132;47.946;10.394;2023-02-12T10:39:42;13.23;;;10.07;;
18013;SDS011;9132;47.946;10.394;2023-02-12T10:42:13;13.40;;;9.63;;
18013;SDS011;9132;47.946;10.394;2023-02-12T10:44:41;13.70;;;10.33;;
18013;SDS011;9132;47.946;10.394;2023-02-12T10:47:10;13.40;;;10.20;;
18013;SDS011;9132;47.946;10.394;2023-02-12T10:49:40;15.53;;;10.70;;
18013;SDS011;9132;47.946;10.394;2023-02-12T10:52:10;15.43;;;10.13;;
18013;SDS011;9132;47.946;10.394;2023-02-12T10:54:40;13.63;;;10.17;;
18013;SDS011;9132;47.946;10.394;2023-02-12T10:57:08;15.23;;;9.90;;
18013;SDS011;9132;47.946;10.394;2023-02-12T10:59:35;14.30;;;10.30;;
18013;SDS011;9132;47.946;10.394;2023-02-12T11:02:01;13.03;;;9.37;;
18013;SDS011;9132;47.946;10.394;2023-02-12T11:04:28;13.43;;;9.60;;
18013;SDS011;9132;47.946;10.394;2023-02-12T11:06:56;15.63;;;9.90;;
18013;SDS011;9132;47.946;10.394;2023-02-12T11:09:27;12.07;;;8.87;;
18013;SDS011;9132;47.946;10.394;2023-02-12T11:11:54;12.97;;;9.13;;
18013;SDS011;9132;47.946;10.394;2023-02-12T11:14:20;12.43;;;9.03;;
18013;SDS011;9132;47.946;10.394;2023-02-12T11:16:50;13.60;;;10.47;;
18013;SDS011;9132;47.946;10.394;2023-02-12T11:19:18;14.20;;;9.87;;
18013;SDS011;9132;47.946;10.394;2023-02-12T11:21:45;12.80;;;9.73;;
18013;SDS011;9132;47.946;10.394;2023-02-12T11:24:25;12.60;;;9.27;;
18013;SDS011;9132;47.946;10.394;2023-02-12T11:26:57;11.53;;;8.17;;
18013;SDS011;9132;47.946;10.394;2023-02-12T11:29:35;11.50;;;8.23;;
18013;SDS011;9132;47.946;10.394;2023-02-12T11:32:02;11.37;;;8.10;;
18013;SDS011;9132;47.946;10.394;2023-02-12T11:34:29;14.07;;;9.57;;
18013;SDS011;9132;47.946;10.394;2023-02-12T11:36:56;12.13;;;8.93;;
18013;SDS011;9132;47.946;10.394;2023-02-12T11:39:25;11.50;;;8.13;;
18013;SDS011;9132;47.946;10.394;2023-02-12T11:41:52;12.47;;;8.73;;
18013;SDS011;9132;47.946;10.394;2023-02-12T11:44:21;11.30;;;7.43;;
18013;SDS011;9132;47.946;10.394;2023-02-12T11:46:48;11.50;;;6.73;;
18013;SDS011;9132;47.946;10.394;2023-02-12T11:49:17;11.30;;;7.50;;
18013;SDS011;9132;47.946;10.394;2023-02-12T11:51:45;9.97;;;7.20;;
18013;SDS011;9132;47.946;10.394;2023-02-12T11:54:15;9.10;;;6.93;;
18013;SDS011;9132;47.946;10.394;2023-02-12T11:56:43;9.80;;;7.13;;
18013;SDS011;9132;47.946;10.394;2023-02-12T11:59:11;13.77;;;9.50;;
18013;SDS011;9132;47.946;10.394;2023-02-12T12:01:44;9.67;;;8.00;;
18013;SDS011;9132;47.946;10.394;2023-02-12T12:04:11;12.53;;;7.53;;
18013;SDS011;9132;47.946;10.394;2023-02-12T12:06:39;9.70;;;7.97;;
18013;SDS011;9132;47.946;10.394;2023-02-12T12:09:10;9.73;;;7.70;;
18013;SDS011;9132;47.946;10.394;2023-02-12T12:11:40;10.77;;;7.33;;
18013;SDS011;9132;47.946;10.394;2023-02-12T12:14:12;11.50;;;8.40;;
18013;SDS011;9132;47.946;10.394;2023-02-12T12:16:41;10.30;;;8.33;;
18013;SDS011;9132;47.946;10.394;2023-02-12T12:19:29;8.73;;;7.23;;
18013;SDS011;9132;47.946;10.394;2023-02-12T12:22:17;9.83;;;6.80;;
18013;SDS011;9132;47.946;10.394;2023-02-12T12:24:46;9.63;;;7.13;;
18013;SDS011;9132;47.946;10.394;2023-02-12T12:27:17;11.10;;;7.70;;
18013;SDS011;9132;47.946;10.394;2023-02-12T12:30:07;11.13;;;7.23;;
18013;SDS011;9132;47.946;10.394;2023-02-12T12:32:37;8.30;;;5.90;;
18013;SDS011;9132;47.946;10.394;2023-02-12T12:35:07;8.30;;;6.27;;
18013;SDS011;9132;47.946;10.394;2023-02-12T12:37:35;7.87;;;6.30;;
18013;SDS011;9132;47.946;10.394;2023-02-12T12:40:10;8.73;;;6.77;;
18013;SDS011;9132;47.946;10.394;2023-02-12T12:42:49;8.07;;;6.03;;
18013;SDS011;9132;47.946;10.394;2023-02-12T12:45:22;8.63;;;6.60;;
18013;SDS011;9132;47.946;10.394;2023-02-12T12:47:57;10.03;;;7.27;;
18013;SDS011;9132;47.946;10.394;2023-02-12T12:50:33;9.57;;;6.90;;
18013;SDS011;9132;47.946;10.394;2023-02-12T12:53:06;8.47;;;6.30;;
18013;SDS011;9132;47.946;10.394;2023-02-12T12:55:40;10.53;;;7.43;;
18013;SDS011;9132;47.946;10.394;2023-02-12T12:58:12;6.90;;;6.00;;
18013;SDS011;9132;47.946;10.394;2023-02-12T13:00:50;10.50;;;6.07;;
18013;SDS011;9132;47.946;10.394;2023-02-12T13:03:23;7.90;;;5.90;;
18013;SDS011;9132;47.946;10.394;2023-02-12T13:05:54;7.77;;;5.93;;
18013;SDS011;9132;47.946;10.394;2023-02-12T13:08:27;7.53;;;6.17;;
18013;SDS011;9132;47.946;10.394;2023-02-12T13:10:58;8.23;;;5.97;;
18013;SDS011;9132;47.946;10.394;2023-02-12T13:13:27;9.13;;;6.87;;
18013;SDS011;9132;47.946;10.394;2023-02-12T13:15:58;7.97;;;6.23;;
18013;SDS011;9132;47.946;10.394;2023-02-12T13:18:29;9.00;;;6.40;;
18013;SDS011;9132;47.946;10.394;2023-02-12T13:21:01;8.70;;;7.00;;
18013;SDS011;9132;47.946;10.394;2023-02-12T13:23:33;9.37;;;7.53;;
18013;SDS011;9132;47.946;10.394;2023-02-12T13:26:04;7.67;;;6.57;;
18013;SDS011;9132;47.946;10.394;2023-02-12T13:28:33;9.03;;;6.93;;
18013;SDS011;9132;47.946;10.394;2023-02-12T13:31:01;8.17;;;6.70;;
18013;SDS011;9132;47.946;10.394;2023-02-12T13:33:32;8.63;;;6.93;;
18013;SDS011;9132;47.946;10.394;2023-02-12T13:36:03;7.23;;;6.40;;
18013;SDS011;9132;47.946;10.394;2023-02-12T13:38:31;6.90;;;6.20;;
18013;SDS011;9132;47.946;10.394;2023-02-12T13:41:03;8.87;;;6.17;;
18013;SDS011;9132;47.946;10.394;2023-02-12T13:43:35;7.83;;;6.10;;
18013;SDS011;9132;47.946;10.394;2023-02-12T13:46:05;6.93;;;4.87;;
18013;SDS011;9132;47.946;10.394;2023-02-12T13:48:42;6.23;;;5.07;;
18013;SDS011;9132;47.946;10.394;2023-02-12T13:51:13;5.43;;;4.90;;
18013;SDS011;9132;47.946;10.394;2023-02-12T13:53:44;5.63;;;4.63;;
18013;SDS011;9132;47.946;10.394;2023-02-12T13:56:17;5.03;;;3.87;;
18013;SDS011;9132;47.946;10.394;2023-02-12T13:58:47;6.73;;;4.90;;
18013;SDS011;9132;47.946;10.394;2023-02-12T14:03:55;5.37;;;4.63;;
18013;SDS011;9132;47.946;10.394;2023-02-12T14:06:22;6.70;;;5.27;;
18013;SDS011;9132;47.946;10.394;2023-02-12T14:08:50;4.93;;;4.00;;
18013;SDS011;9132;47.946;10.394;2023-02-12T14:11:19;5.70;;;4.43;;
18013;SDS011;9132;47.946;10.394;2023-02-12T14:13:50;7.03;;;4.87;;
18013;SDS011;9132;47.946;10.394;2023-02-12T14:16:18;6.43;;;4.90;;
18013;SDS011;9132;47.946;10.394;2023-02-12T14:18:45;6.80;;;4.67;;
18013;SDS011;9132;47.946;10.394;2023-02-12T14:26:48;6.87;;;5.57;;
18013;SDS011;9132;47.946;10.394;2023-02-12T14:29:14;6.37;;;5.30;;
18013;SDS011;9132;47.946;10.394;2023-02-12T14:31:45;6.00;;;5.40;;
18013;SDS011;9132;47.946;10.394;2023-02-12T14:37:13;6.83;;;5.73;;
18013;SDS011;9132;47.946;10.394;2023-02-12T14:39:40;7.27;;;6.13;;
18013;SDS011;9132;47.946;10.394;2023-02-12T14:44:55;6.83;;;6.13;;
18013;SDS011;9132;47.946;10.394;2023-02-12T14:50:11;6.63;;;5.97;;
18013;SDS011;9132;47.946;10.394;2023-02-12T14:52:39;7.77;;;6.80;;
18013;SDS011;9132;47.946;10.394;2023-02-12T14:55:16;7.23;;;5.97;;
18013;SDS011;9132;47.946;10.394;2023-02-12T14:57:43;7.93;;;6.57;;